createdAt,value
2023-04-18T00:00:56.213Z,5.5231
2023-04-18T00:01:59.316Z,6.1462
2023-04-18T00:03:04.429Z,5.5308
2023-04-18T00:04:05.250Z,5.0846
2023-04-18T00:05:08.043Z,5.9538
2023-04-18T00:06:10.985Z,5.8077
2023-04-18T00:07:13.920Z,5.8154
2023-04-18T00:08:16.895Z,6.3769
2023-04-18T00:09:19.865Z,5.6538
2023-04-18T00:10:22.765Z,6.0923
2023-04-18T00:11:25.811Z,5.7615
2023-04-18T00:12:28.665Z,5.6077
2023-04-18T00:13:31.617Z,5.6769
2023-04-18T00:14:34.614Z,6.2462
2023-04-18T00:15:37.539Z,5.3385
2023-04-18T00:16:40.538Z,6.0000
2023-04-18T00:17:43.491Z,6.3846
2023-04-18T00:18:46.392Z,6.3692
2023-04-18T00:19:49.320Z,6.2462
2023-04-18T00:20:52.257Z,6.1077
2023-04-18T00:21:55.232Z,5.9308
2023-04-18T00:22:58.148Z,5.8077
2023-04-18T00:24:01.120Z,6.0846
2023-04-18T00:25:04.065Z,6.2308
2023-04-18T00:26:07.061Z,6.1462
2023-04-18T00:27:10.089Z,6.2385
2023-04-18T00:28:12.910Z,6.4538
2023-04-18T00:29:15.856Z,6.0923
2023-04-18T00:30:18.827Z,6.6000
2023-04-18T00:31:21.805Z,5.8615
2023-04-18T00:32:24.741Z,5.5231
2023-04-18T00:33:27.645Z,6.6000
2023-04-18T00:34:30.607Z,6.3231
2023-04-18T00:35:33.555Z,5.7231
2023-04-18T00:36:36.505Z,5.5692
2023-04-18T00:37:39.485Z,5.8154
2023-04-18T00:38:42.395Z,5.3385
2023-04-18T00:39:45.346Z,6.4077
2023-04-18T00:40:48.311Z,6.2385
2023-04-18T00:41:51.304Z,6.3231
2023-04-18T00:42:54.215Z,6.9231
2023-04-18T00:43:57.161Z,6.2615
2023-04-18T00:45:00.132Z,6.2846
2023-04-18T00:46:03.075Z,6.3923
2023-04-18T00:47:06.038Z,6.4923
2023-04-18T00:48:09.003Z,6.1231
2023-04-18T00:49:11.958Z,7.1231
2023-04-18T00:50:14.870Z,6.2000
2023-04-18T00:51:17.812Z,6.6538
2023-04-18T00:52:20.742Z,6.2231
2023-04-18T00:53:23.720Z,6.3462
2023-04-18T00:54:26.688Z,6.3231
2023-04-18T00:55:29.582Z,6.4846
2023-04-18T00:56:32.585Z,6.5846
2023-04-18T00:57:35.489Z,6.7538
2023-04-18T00:58:38.433Z,5.9154
2023-04-18T00:59:41.458Z,6.2077
2023-04-18T01:00:44.317Z,6.1462
2023-04-18T01:01:47.331Z,6.0615
2023-04-18T01:02:50.346Z,6.3231
2023-04-18T01:03:53.291Z,6.1462
2023-04-18T01:04:56.163Z,5.8308
2023-04-18T01:05:59.091Z,6.6077
2023-04-18T01:07:02.034Z,6.0923
2023-04-18T01:08:04.986Z,5.9923
2023-04-18T01:09:07.914Z,6.3385
2023-04-18T01:10:10.860Z,6.0462
2023-04-18T01:11:13.807Z,6.0923
2023-04-18T01:12:16.764Z,6.4000
2023-04-18T01:13:19.705Z,6.0615
2023-04-18T01:14:22.674Z,6.5000
2023-04-18T01:15:25.606Z,6.8462
2023-04-18T01:16:28.627Z,7.0308
2023-04-18T01:17:31.570Z,6.6308
2023-04-18T01:18:34.448Z,6.1231
2023-04-18T01:19:37.420Z,6.8231
2023-04-18T01:20:40.388Z,6.3077
2023-04-18T01:21:43.294Z,5.9000
2023-04-18T01:22:46.255Z,5.5923
2023-04-18T01:23:49.199Z,5.7846
2023-04-18T01:24:52.141Z,6.3846
2023-04-18T01:25:55.090Z,5.6769
2023-04-18T01:26:58.049Z,6.4462
2023-04-18T01:28:00.979Z,5.3462
2023-04-18T01:29:03.979Z,5.8231
2023-04-18T01:30:06.872Z,5.8154
2023-04-18T01:31:09.848Z,5.8231
2023-04-18T01:32:12.850Z,5.7846
2023-04-18T01:33:15.871Z,5.7462
2023-04-18T01:34:18.775Z,5.7308
2023-04-18T01:35:21.720Z,5.1077
2023-04-18T01:36:24.662Z,5.2000
2023-04-18T01:37:27.612Z,5.6538
2023-04-18T01:38:30.536Z,5.8308
2023-04-18T01:39:33.653Z,7.0462
2023-04-18T01:40:36.439Z,5.8923
2023-04-18T01:41:39.387Z,6.4000
2023-04-18T01:42:42.343Z,5.4846
2023-04-18T01:43:45.311Z,5.8385
2023-04-18T01:44:48.232Z,6.1923
2023-04-18T01:45:51.223Z,5.4923
2023-04-18T01:46:54.163Z,6.0231
2023-04-18T01:47:57.184Z,5.4462
2023-04-18T01:49:00.051Z,5.1615
2023-04-18T01:50:02.962Z,6.4385
2023-04-18T01:51:05.909Z,6.0308
2023-04-18T01:52:08.900Z,4.7000
2023-04-18T01:53:11.828Z,4.9231
2023-04-18T01:54:14.856Z,5.7462
2023-04-18T01:55:17.695Z,5.5000
2023-04-18T01:56:20.661Z,5.8769
2023-04-18T01:57:23.605Z,5.3846
2023-04-18T01:58:26.557Z,5.0615
2023-04-18T01:59:29.497Z,5.7231
2023-04-18T02:00:32.459Z,5.8462
2023-04-18T02:01:35.373Z,5.3769
2023-04-18T02:02:38.440Z,5.0154
2023-04-18T02:03:41.505Z,4.7846
2023-04-18T02:04:44.281Z,4.8846
2023-04-18T02:05:47.166Z,5.5615
2023-04-18T02:06:50.109Z,5.0154
2023-04-18T02:07:53.072Z,5.3692
2023-04-18T02:08:56.009Z,5.5615
2023-04-18T02:09:58.944Z,5.5923
2023-04-18T02:11:01.924Z,5.5462
2023-04-18T02:12:04.852Z,5.7769
2023-04-18T02:13:07.835Z,5.6769
2023-04-18T02:14:10.771Z,5.9308
2023-04-18T02:15:13.697Z,5.2231
2023-04-18T02:16:16.681Z,5.9538
2023-04-18T02:17:19.577Z,5.6385
2023-04-18T02:18:22.540Z,5.7462
2023-04-18T02:19:25.481Z,5.6769
2023-04-18T02:20:28.434Z,5.7538
2023-04-18T02:21:31.492Z,5.9846
2023-04-18T02:22:34.308Z,5.5769
2023-04-18T02:23:37.330Z,6.0231
2023-04-18T02:24:40.210Z,5.9077
2023-04-18T02:25:43.174Z,5.6308
2023-04-18T02:26:46.106Z,5.5769
2023-04-18T02:27:49.082Z,6.1154
2023-04-18T02:28:52.012Z,6.1308
2023-04-18T02:29:54.955Z,6.1231
2023-04-18T02:30:57.894Z,6.3000
2023-04-18T02:32:00.921Z,6.4231
2023-04-18T02:33:03.841Z,5.8769
2023-04-18T02:34:06.794Z,5.8000
2023-04-18T02:35:09.765Z,5.0615
2023-04-18T02:36:12.654Z,5.8462
2023-04-18T02:37:15.571Z,6.2154
2023-04-18T02:38:18.549Z,5.7923
2023-04-18T02:39:21.483Z,5.7462
2023-04-18T02:40:24.464Z,5.8615
2023-04-18T02:41:27.370Z,5.7769
2023-04-18T02:42:30.318Z,6.4000
2023-04-18T02:43:33.276Z,6.8154
2023-04-18T02:44:36.278Z,6.1538
2023-04-18T02:45:39.182Z,6.3846
2023-04-18T02:46:42.109Z,6.6385
2023-04-18T02:47:54.440Z,6.5769
2023-04-18T02:48:48.043Z,7.0923
2023-04-18T02:49:51.226Z,6.5308
2023-04-18T02:50:53.953Z,6.2462
2023-04-18T02:51:56.869Z,6.4308
2023-04-18T02:52:59.896Z,6.5385
2023-04-18T02:54:02.772Z,6.1231
2023-04-18T02:55:05.752Z,6.5846
2023-04-18T02:56:08.675Z,6.3077
2023-04-18T02:57:11.655Z,6.8308
2023-04-18T02:58:14.608Z,6.6385
2023-04-18T02:59:17.570Z,6.2154
2023-04-18T03:00:20.540Z,6.0692
2023-04-18T03:01:23.523Z,6.9846
2023-04-18T03:02:26.602Z,6.8692
2023-04-18T03:03:29.423Z,7.3615
2023-04-18T03:04:32.412Z,6.7769
2023-04-18T03:05:35.326Z,6.9769
2023-04-18T03:06:38.291Z,6.4154
2023-04-18T03:07:41.237Z,6.6769
2023-04-18T03:08:44.278Z,7.6923
2023-04-18T03:09:47.142Z,6.9077
2023-04-18T03:10:50.087Z,7.1077
2023-04-18T03:11:53.052Z,7.3308
2023-04-18T03:12:55.992Z,7.1154
2023-04-18T03:13:58.940Z,6.4923
2023-04-18T03:15:01.902Z,6.9154
2023-04-18T03:16:04.935Z,6.5462
2023-04-18T03:17:07.802Z,7.0154
2023-04-18T03:18:10.755Z,7.5923
2023-04-18T03:19:13.751Z,7.2000
2023-04-18T03:20:16.725Z,6.5923
2023-04-18T03:21:19.634Z,6.9846
2023-04-18T03:22:22.577Z,8.0308
2023-04-18T03:23:25.550Z,6.5462
2023-04-18T03:24:28.486Z,7.3154
2023-04-18T03:25:31.506Z,7.9308
2023-04-18T03:26:34.403Z,6.9462
2023-04-18T03:27:37.546Z,7.5769
2023-04-18T03:28:40.416Z,6.7846
2023-04-18T03:29:43.291Z,6.7385
2023-04-18T03:30:46.280Z,7.2615
2023-04-18T03:31:49.251Z,7.2077
2023-04-18T03:32:52.171Z,7.0308
2023-04-18T03:33:55.141Z,6.8846
2023-04-18T03:34:58.184Z,6.9077
2023-04-18T03:36:01.097Z,7.0000
2023-04-18T03:37:03.997Z,6.6077
2023-04-18T03:38:06.940Z,7.3769
2023-04-18T03:39:09.891Z,7.0923
2023-04-18T03:40:12.860Z,7.0385
2023-04-18T03:41:15.794Z,6.7538
2023-04-18T03:42:18.810Z,7.2077
2023-04-18T03:43:21.682Z,7.3615
2023-04-18T03:44:24.688Z,7.8077
2023-04-18T03:45:27.593Z,6.7538
2023-04-18T03:46:30.670Z,6.6077
2023-04-18T03:47:33.561Z,7.2308
2023-04-18T03:48:36.450Z,7.0846
2023-04-18T03:49:39.400Z,7.4692
2023-04-18T03:50:42.355Z,7.1385
2023-04-18T03:51:45.285Z,7.1308
2023-04-18T03:52:48.350Z,6.8462
2023-04-18T03:53:51.228Z,7.0692
2023-04-18T03:54:54.146Z,6.6000
2023-04-18T03:55:57.121Z,7.0154
2023-04-18T03:57:00.048Z,7.1538
2023-04-18T03:58:02.992Z,6.7154
2023-04-18T03:59:05.953Z,6.9615
2023-04-18T04:00:08.898Z,6.9692
2023-04-18T04:01:11.881Z,7.6154
2023-04-18T04:02:14.887Z,7.8923
2023-04-18T04:03:17.959Z,7.7615
2023-04-18T04:04:20.809Z,7.4308
2023-04-18T04:05:23.702Z,8.0923
2023-04-18T04:06:26.618Z,8.5462
2023-04-18T04:07:29.566Z,7.6692
2023-04-18T04:08:32.520Z,9.1308
2023-04-18T04:09:35.478Z,7.7846
2023-04-18T04:10:38.514Z,7.2538
2023-04-18T04:11:41.535Z,8.6462
2023-04-18T04:12:44.327Z,11.3615
2023-04-18T04:13:47.318Z,10.0154
2023-04-18T04:14:50.219Z,8.4462
2023-04-18T04:15:53.374Z,8.6538
2023-04-18T04:16:56.168Z,10.1923
2023-04-18T04:17:59.114Z,8.5769
2023-04-18T04:19:02.041Z,8.1538
2023-04-18T04:20:05.011Z,8.2769
2023-04-18T04:21:07.948Z,8.4000
2023-04-18T04:22:10.919Z,8.0077
2023-04-18T04:23:13.848Z,8.0231
2023-04-18T04:24:16.912Z,8.3308
2023-04-18T04:25:19.747Z,7.5231
2023-04-18T04:26:22.735Z,8.3615
2023-04-18T04:27:25.642Z,8.4154
2023-04-18T04:28:28.604Z,8.1538
2023-04-18T04:29:31.589Z,7.8077
2023-04-18T04:30:34.499Z,7.6769
2023-04-18T04:31:37.485Z,7.9308
2023-04-18T04:32:40.505Z,7.8769
2023-04-18T04:33:43.351Z,8.2000
2023-04-18T04:34:46.331Z,7.8538
2023-04-18T04:35:49.252Z,8.4769
2023-04-18T04:36:52.231Z,9.4846
2023-04-18T04:37:55.161Z,8.6923
2023-04-18T04:38:58.107Z,8.4692
2023-04-18T04:40:01.061Z,8.0692
2023-04-18T04:41:04.038Z,8.7000
2023-04-18T04:42:06.949Z,8.4154
2023-04-18T04:43:10.033Z,8.9385
2023-04-18T04:44:13.143Z,7.8154
2023-04-18T04:45:15.884Z,8.7154
2023-04-18T04:46:18.820Z,8.8923
2023-04-18T04:47:21.718Z,8.8692
2023-04-18T04:48:24.677Z,8.6000
2023-04-18T04:49:27.654Z,8.9385
2023-04-18T04:50:30.601Z,8.6308
2023-04-18T04:51:33.521Z,9.5308
2023-04-18T04:52:36.467Z,9.2692
2023-04-18T04:53:39.421Z,9.3769
2023-04-18T04:54:42.373Z,9.5846
2023-04-18T04:55:45.309Z,8.9538
2023-04-18T04:56:48.257Z,9.2308
2023-04-18T04:57:51.219Z,10.7308
2023-04-18T04:58:54.222Z,9.4923
2023-04-18T04:59:57.113Z,10.8692
2023-04-18T05:01:00.058Z,9.8231
2023-04-18T05:02:03.175Z,9.8154
2023-04-18T05:03:06.028Z,9.4769
2023-04-18T05:04:08.985Z,9.1154
2023-04-18T05:05:11.939Z,8.4077
2023-04-18T05:06:14.873Z,9.4308
2023-04-18T05:07:17.779Z,9.2462
2023-04-18T05:08:20.721Z,9.2769
2023-04-18T05:09:23.678Z,9.1615
2023-04-18T05:10:26.616Z,10.3231
2023-04-18T05:11:29.565Z,9.9231
2023-04-18T05:12:32.525Z,10.2462
2023-04-18T05:13:35.486Z,9.4154
2023-04-18T05:14:38.452Z,10.2385
2023-04-18T05:15:41.371Z,12.7846
2023-04-18T05:16:44.368Z,11.0538
2023-04-18T05:17:47.312Z,10.9154
2023-04-18T05:18:50.221Z,9.1923
2023-04-18T05:19:53.196Z,9.6462
2023-04-18T05:20:56.133Z,9.8769
2023-04-18T05:21:59.079Z,11.0462
2023-04-18T05:23:02.042Z,9.4538
2023-04-18T05:24:04.957Z,10.8692
2023-04-18T05:25:07.917Z,9.8000
2023-04-18T05:26:10.877Z,9.7462
2023-04-18T05:27:13.872Z,9.2846
2023-04-18T05:28:16.779Z,12.1308
2023-04-18T05:29:19.712Z,10.0769
2023-04-18T05:30:22.729Z,10.8385
2023-04-18T05:31:25.634Z,11.2077
2023-04-18T05:32:28.583Z,9.7385
2023-04-18T05:33:31.524Z,10.0538
2023-04-18T05:34:35.319Z,9.8769
2023-04-18T05:35:37.418Z,9.4000
2023-04-18T05:36:40.344Z,9.3000
2023-04-18T05:37:43.320Z,9.8846
2023-04-18T05:38:46.246Z,9.4692
2023-04-18T05:39:49.298Z,9.6077
2023-04-18T05:40:52.227Z,10.9385
2023-04-18T05:41:55.175Z,9.0231
2023-04-18T05:42:58.128Z,9.5769
2023-04-18T05:44:05.319Z,10.1462
2023-04-18T05:45:04.049Z,9.8385
2023-04-18T05:46:07.026Z,10.5846
2023-04-18T05:47:09.950Z,10.4000
2023-04-18T05:48:12.931Z,9.7385
2023-04-18T05:49:15.859Z,10.5308
2023-04-18T05:50:18.788Z,10.5692
2023-04-18T05:51:21.738Z,9.9769
2023-04-18T05:52:24.675Z,10.3154
2023-04-18T05:53:27.654Z,10.2000
2023-04-18T05:54:30.581Z,9.5538
2023-04-18T05:55:33.514Z,9.3385
2023-04-18T05:56:36.477Z,10.3462
2023-04-18T05:57:39.417Z,10.1769
2023-04-18T05:58:42.392Z,9.1385
2023-04-18T05:59:45.340Z,10.2615
2023-04-18T06:00:48.294Z,9.4077
2023-04-18T06:01:51.286Z,9.3231
2023-04-18T06:02:54.320Z,9.8000
2023-04-18T06:03:57.456Z,10.5077
2023-04-18T06:05:00.267Z,10.1385
2023-04-18T06:06:03.152Z,11.6462
2023-04-18T06:07:05.969Z,11.6154
2023-04-18T06:08:08.908Z,11.3692
2023-04-18T06:09:11.868Z,10.1000
2023-04-18T06:10:14.825Z,11.8462
2023-04-18T06:11:17.766Z,10.8000
2023-04-18T06:12:20.693Z,10.1077
2023-04-18T06:13:23.650Z,11.5462
2023-04-18T06:14:26.592Z,10.3308
2023-04-18T06:15:29.552Z,10.3385
2023-04-18T06:16:32.522Z,11.1385
2023-04-18T06:17:35.465Z,11.2154
2023-04-18T06:18:38.411Z,10.5000
2023-04-18T06:19:41.341Z,10.6462
2023-04-18T06:20:44.337Z,9.6385
2023-04-18T06:21:47.246Z,10.4077
2023-04-18T06:22:50.219Z,10.6769
2023-04-18T06:23:53.144Z,9.9385
2023-04-18T06:24:56.092Z,10.3846
2023-04-18T06:25:59.055Z,10.1923
2023-04-18T06:27:02.012Z,10.1846
2023-04-18T06:28:04.932Z,10.2308
2023-04-18T06:29:07.882Z,10.2462
2023-04-18T06:30:10.824Z,9.7923
2023-04-18T06:31:13.849Z,9.6846
2023-04-18T06:32:16.713Z,10.1462
2023-04-18T06:33:19.687Z,9.3385
2023-04-18T06:34:22.617Z,10.3231
2023-04-18T06:35:26.723Z,9.5154
2023-04-18T06:36:28.499Z,9.8692
2023-04-18T06:37:31.436Z,10.3154
2023-04-18T06:38:34.396Z,11.0385
2023-04-18T06:39:37.319Z,10.3615
2023-04-18T06:40:40.278Z,10.5077
2023-04-18T06:41:43.218Z,9.6154
2023-04-18T06:42:46.181Z,10.1846
2023-04-18T06:44:02.019Z,9.7769
2023-04-18T06:44:52.075Z,8.9769
2023-04-18T06:45:55.024Z,10.0538
2023-04-18T06:46:57.980Z,10.1231
2023-04-18T06:48:00.936Z,9.5692
2023-04-18T06:49:03.928Z,10.2000
2023-04-18T06:50:06.833Z,9.4231
2023-04-18T06:51:09.785Z,10.3231
2023-04-18T06:52:12.746Z,10.8846
2023-04-18T06:53:15.676Z,10.4077
2023-04-18T06:54:18.635Z,10.9385
2023-04-18T06:55:21.599Z,10.6692
2023-04-18T06:56:24.517Z,10.2231
2023-04-18T06:57:27.482Z,11.0615
2023-04-18T06:58:30.414Z,10.8231
2023-04-18T06:59:33.369Z,9.9231
2023-04-18T07:00:36.330Z,10.1846
2023-04-18T07:01:39.346Z,9.5231
2023-04-18T07:02:42.399Z,9.4846
2023-04-18T07:03:45.217Z,9.8615
2023-04-18T07:04:48.384Z,9.9231
2023-04-18T07:05:51.083Z,9.8846
2023-04-18T07:06:53.991Z,10.4615
2023-04-18T07:07:56.950Z,9.8615
2023-04-18T07:08:59.943Z,9.9154
2023-04-18T07:10:02.864Z,10.1692
2023-04-18T07:11:05.816Z,10.2154
2023-04-18T07:12:08.764Z,10.7462
2023-04-18T07:13:11.738Z,9.2846
2023-04-18T07:14:14.958Z,9.1538
2023-04-18T07:15:17.584Z,8.7615
2023-04-18T07:16:20.617Z,10.9154
2023-04-18T07:17:23.494Z,10.0462
2023-04-18T07:18:36.773Z,9.0692
2023-04-18T07:19:29.375Z,9.9692
2023-04-18T07:20:32.358Z,10.1462
2023-04-18T07:21:35.379Z,9.6308
2023-04-18T07:22:38.219Z,8.8923
2023-04-18T07:23:41.147Z,8.8231
2023-04-18T07:24:44.136Z,9.5077
2023-04-18T07:25:47.074Z,8.0154
2023-04-18T07:26:50.003Z,8.2846
2023-04-18T07:27:52.948Z,8.2923
2023-04-18T07:28:55.888Z,8.0308
2023-04-18T07:29:58.858Z,8.9923
2023-04-18T07:31:01.881Z,7.7000
2023-04-18T07:32:06.195Z,8.4154
2023-04-18T07:33:07.696Z,8.6615
2023-04-18T07:34:10.657Z,8.0462
2023-04-18T07:35:13.601Z,9.1308
2023-04-18T07:36:16.536Z,9.1692
2023-04-18T07:37:19.493Z,8.1923
2023-04-18T07:38:22.436Z,8.9385
2023-04-18T07:39:25.386Z,9.1615
2023-04-18T07:40:28.344Z,7.8154
2023-04-18T07:41:31.295Z,8.1231
2023-04-18T07:42:34.230Z,7.7000
2023-04-18T07:43:37.190Z,7.0231
2023-04-18T07:44:40.113Z,9.0462
2023-04-18T07:45:43.103Z,7.7308
2023-04-18T07:46:46.092Z,7.8846
2023-04-18T07:47:48.976Z,7.5154
2023-04-18T07:48:51.900Z,7.2385
2023-04-18T07:49:54.857Z,7.2154
2023-04-18T07:50:57.825Z,7.8154
2023-04-18T07:52:00.728Z,8.1308
2023-04-18T07:53:03.680Z,7.6000
2023-04-18T07:54:06.656Z,6.9615
2023-04-18T07:55:09.696Z,6.2462
2023-04-18T07:56:12.563Z,6.9846
2023-04-18T07:57:15.482Z,7.6462
2023-04-18T07:58:18.422Z,6.7923
2023-04-18T07:59:21.383Z,6.6462
2023-04-18T08:00:24.386Z,7.2154
2023-04-18T08:01:27.307Z,7.5000
2023-04-18T08:02:30.330Z,7.3692
2023-04-18T08:03:33.315Z,7.9846
2023-04-18T08:04:36.222Z,8.1846
2023-04-18T08:05:39.100Z,7.9385
2023-04-18T08:06:42.013Z,8.4615
2023-04-18T08:07:44.941Z,7.4462
2023-04-18T08:08:47.889Z,7.5154
2023-04-18T08:09:50.845Z,8.1077
2023-04-18T08:10:53.861Z,8.0385
2023-04-18T08:11:56.757Z,8.2538
2023-04-18T08:12:59.687Z,7.8231
2023-04-18T08:14:02.645Z,8.8077
2023-04-18T08:15:05.599Z,8.8308
2023-04-18T08:16:08.586Z,7.4000
2023-04-18T08:17:11.489Z,7.9769
2023-04-18T08:18:14.438Z,8.0077
2023-04-18T08:19:17.398Z,7.5385
2023-04-18T08:20:20.401Z,7.7385
2023-04-18T08:21:23.300Z,7.2154
2023-04-18T08:22:26.241Z,8.1077
2023-04-18T08:23:29.266Z,7.7077
2023-04-18T08:24:32.144Z,8.3923
2023-04-18T08:25:35.080Z,8.5769
2023-04-18T08:26:38.107Z,7.8077
2023-04-18T08:27:40.991Z,7.9462
2023-04-18T08:28:45.951Z,7.8000
2023-04-18T08:29:46.994Z,8.0923
2023-04-18T08:30:49.844Z,8.3923
2023-04-18T08:31:52.901Z,8.1077
2023-04-18T08:32:55.738Z,7.5615
2023-04-18T08:33:58.679Z,6.9462
2023-04-18T08:35:01.657Z,9.0538
2023-04-18T08:36:04.592Z,8.2615
2023-04-18T08:37:07.521Z,7.6692
2023-04-18T08:38:10.479Z,8.4692
2023-04-18T08:39:13.897Z,7.6077
2023-04-18T08:40:16.371Z,7.1077
2023-04-18T08:41:19.328Z,7.2615
2023-04-18T08:42:22.247Z,7.3154
2023-04-18T08:43:25.238Z,7.1846
2023-04-18T08:44:28.198Z,8.2846
2023-04-18T08:45:31.177Z,7.8846
2023-04-18T08:46:34.156Z,6.8692
2023-04-18T08:47:37.124Z,7.1692
2023-04-18T08:48:39.941Z,7.6308
2023-04-18T08:49:43.031Z,7.6462
2023-04-18T08:50:45.852Z,6.9385
2023-04-18T08:51:48.807Z,6.7385
2023-04-18T08:52:51.733Z,7.0923
2023-04-18T08:53:54.692Z,7.1769
2023-04-18T08:54:57.720Z,6.9846
2023-04-18T08:56:00.609Z,9.3000
2023-04-18T08:57:03.564Z,7.8385
2023-04-18T08:58:06.494Z,8.8077
2023-04-18T08:59:09.439Z,7.4846
2023-04-18T09:00:12.387Z,7.6538
2023-04-18T09:01:15.380Z,7.6462
2023-04-18T09:02:18.315Z,7.4923
2023-04-18T09:03:21.347Z,7.5231
2023-04-18T09:04:24.205Z,7.4923
2023-04-18T09:05:27.112Z,7.3000
2023-04-18T09:06:30.084Z,7.3462
2023-04-18T09:07:33.128Z,8.8385
2023-04-18T09:08:36.001Z,8.2000
2023-04-18T09:09:38.920Z,8.1923
2023-04-18T09:10:42.798Z,8.1846
2023-04-18T09:11:44.803Z,8.4385
2023-04-18T09:12:47.765Z,7.0923
2023-04-18T09:13:50.725Z,7.9846
2023-04-18T09:14:53.666Z,7.3077
2023-04-18T09:15:56.637Z,7.8538
2023-04-18T09:16:59.626Z,8.2231
2023-04-18T09:18:02.771Z,8.6538
2023-04-18T09:19:06.890Z,7.9231
2023-04-18T09:20:08.418Z,8.9385
2023-04-18T09:21:11.355Z,8.1462
2023-04-18T09:22:14.328Z,7.5923
2023-04-18T09:23:17.272Z,6.6000
2023-04-18T09:24:20.243Z,7.0154
2023-04-18T09:25:23.199Z,6.9538
2023-04-18T09:26:26.211Z,7.7462
2023-04-18T09:27:29.058Z,6.7615
2023-04-18T09:28:31.990Z,6.9462
2023-04-18T09:29:34.972Z,6.7077
2023-04-18T09:30:37.977Z,6.8000
2023-04-18T09:31:40.845Z,8.5385
2023-04-18T09:32:43.853Z,7.8308
2023-04-18T09:33:46.732Z,7.3692
2023-04-18T09:34:49.670Z,8.0769
2023-04-18T09:35:52.623Z,7.4769
2023-04-18T09:36:55.656Z,7.2308
2023-04-18T09:37:58.526Z,8.0923
2023-04-18T09:39:01.486Z,7.4077
2023-04-18T09:40:04.411Z,7.5308
2023-04-18T09:41:07.383Z,7.4308
2023-04-18T09:42:10.303Z,7.2385
2023-04-18T09:43:13.272Z,8.0308
2023-04-18T09:44:16.210Z,7.9154
2023-04-18T09:45:19.149Z,6.7615
2023-04-18T09:46:22.110Z,7.2923
2023-04-18T09:47:25.072Z,7.2000
2023-04-18T09:48:28.119Z,8.4231
2023-04-18T09:49:31.033Z,7.1462
2023-04-18T09:50:33.954Z,7.1308
2023-04-18T09:51:36.882Z,7.2615
2023-04-18T09:52:39.858Z,7.4000
2023-04-18T09:53:42.807Z,6.8000
2023-04-18T09:54:48.122Z,6.4462
2023-04-18T09:55:48.666Z,7.4000
2023-04-18T09:56:51.638Z,7.0769
2023-04-18T09:57:54.566Z,7.0385
2023-04-18T09:58:57.520Z,6.0692
2023-04-18T10:00:00.508Z,7.0000
2023-04-18T10:01:03.486Z,5.7692
2023-04-18T10:02:06.564Z,6.7692
2023-04-18T10:03:09.419Z,7.0538
2023-04-18T10:04:12.525Z,6.6462
2023-04-18T10:05:15.258Z,6.9385
2023-04-18T10:06:18.150Z,6.4769
2023-04-18T10:07:21.106Z,5.8923
2023-04-18T10:08:24.081Z,6.1923
2023-04-18T10:09:27.000Z,5.3615
2023-04-18T10:10:29.957Z,5.3846
2023-04-18T10:11:32.906Z,5.7000
2023-04-18T10:12:35.839Z,5.7308
2023-04-18T10:13:38.951Z,5.7154
2023-04-18T10:14:41.733Z,6.2000
2023-04-18T10:15:45.326Z,5.5615
2023-04-18T10:16:49.268Z,5.9923
2023-04-18T10:18:02.814Z,6.3077
2023-04-18T10:18:53.547Z,6.1462
2023-04-18T10:19:56.479Z,5.8692
2023-04-18T10:20:59.427Z,6.4615
2023-04-18T10:22:02.410Z,6.9692
2023-04-18T10:23:05.341Z,7.1538
2023-04-18T10:24:08.299Z,6.1231
2023-04-18T10:25:11.214Z,6.5000
2023-04-18T10:26:14.187Z,8.2615
2023-04-18T10:27:17.108Z,7.1154
2023-04-18T10:28:20.090Z,7.1538
2023-04-18T10:29:23.002Z,7.3692
2023-04-18T10:30:25.969Z,6.5538
2023-04-18T10:31:28.979Z,6.8308
2023-04-18T10:32:31.881Z,6.1385
2023-04-18T10:33:34.862Z,6.3000
2023-04-18T10:34:37.805Z,5.9308
2023-04-18T10:35:41.398Z,6.6231
2023-04-18T10:36:43.653Z,6.2154
2023-04-18T10:37:46.614Z,6.2000
2023-04-18T10:38:49.600Z,5.9769
2023-04-18T10:39:52.528Z,6.5231
2023-04-18T10:40:55.471Z,6.9846
2023-04-18T10:41:58.380Z,6.0462
2023-04-18T10:43:01.345Z,6.1462
2023-04-18T10:44:04.701Z,5.7462
2023-04-18T10:45:07.405Z,5.9462
2023-04-18T10:46:17.323Z,6.4308
2023-04-18T10:47:13.133Z,6.0000
2023-04-18T10:48:16.097Z,5.8615
2023-04-18T10:49:19.034Z,5.6846
2023-04-18T10:50:21.959Z,6.0385
2023-04-18T10:51:24.930Z,6.1154
2023-04-18T10:52:27.870Z,6.2308
2023-04-18T10:53:30.890Z,6.9846
2023-04-18T10:54:33.763Z,6.8308
2023-04-18T10:55:36.711Z,7.0769
2023-04-18T10:56:39.661Z,6.7538
2023-04-18T10:57:42.614Z,6.3231
2023-04-18T10:58:45.596Z,5.7538
2023-04-18T10:59:48.513Z,6.4231
2023-04-18T11:00:51.547Z,5.9923
2023-04-18T11:01:54.438Z,6.3385
2023-04-18T11:02:57.452Z,6.0231
2023-04-18T11:04:00.456Z,6.3615
2023-04-18T11:05:03.244Z,5.8923
2023-04-18T11:06:06.202Z,5.6923
2023-04-18T11:07:09.181Z,5.8692
2023-04-18T11:08:12.110Z,6.1615
2023-04-18T11:09:15.086Z,5.5692
2023-04-18T11:10:18.036Z,6.6231
2023-04-18T11:11:20.953Z,6.2385
2023-04-18T11:12:23.952Z,5.8154
2023-04-18T11:13:26.845Z,7.2923
2023-04-18T11:14:29.801Z,7.2154
2023-04-18T11:15:32.741Z,5.8692
2023-04-18T11:16:35.926Z,6.9385
2023-04-18T11:17:38.649Z,8.8846
2023-04-18T11:18:41.595Z,6.0692
2023-04-18T11:19:44.569Z,6.0077
2023-04-18T11:20:47.503Z,5.6385
2023-04-18T11:21:50.437Z,5.5846
2023-04-18T11:22:53.407Z,6.0154
2023-04-18T11:23:56.332Z,5.7308
2023-04-18T11:24:59.283Z,5.7846
2023-04-18T11:26:02.356Z,5.7231
2023-04-18T11:27:05.252Z,6.1923
2023-04-18T11:28:08.192Z,6.2692
2023-04-18T11:29:11.090Z,6.3154
2023-04-18T11:30:14.031Z,5.5769
2023-04-18T11:31:17.014Z,7.1000
2023-04-18T11:32:19.974Z,6.6462
2023-04-18T11:33:22.968Z,5.8462
2023-04-18T11:34:25.815Z,6.3769
2023-04-18T11:35:28.817Z,6.3385
2023-04-18T11:36:31.737Z,5.8077
2023-04-18T11:37:34.689Z,6.4000
2023-04-18T11:38:37.616Z,6.9077
2023-04-18T11:39:40.567Z,6.5000
2023-04-18T11:40:43.516Z,5.1231
2023-04-18T11:41:46.500Z,5.6923
2023-04-18T11:42:49.420Z,6.0769
2023-04-18T11:43:52.406Z,6.2385
2023-04-18T11:44:55.316Z,6.0231
2023-04-18T11:45:58.307Z,6.4538
2023-04-18T11:47:01.219Z,7.1923
2023-04-18T11:48:04.241Z,5.7000
2023-04-18T11:49:07.132Z,6.2462
2023-04-18T11:50:10.202Z,6.5231
2023-04-18T11:51:13.058Z,6.7385
2023-04-18T11:52:15.963Z,5.9154
2023-04-18T11:53:18.909Z,6.6769
2023-04-18T11:54:21.890Z,5.5769
2023-04-18T11:55:24.816Z,5.7154
2023-04-18T11:56:28.102Z,6.2615
2023-04-18T11:57:30.717Z,5.4462
2023-04-18T11:58:33.692Z,7.0077
2023-04-18T11:59:36.638Z,6.8385
2023-04-18T12:00:39.679Z,5.3231
2023-04-18T12:01:42.520Z,5.8846
2023-04-18T12:02:45.575Z,6.0846
2023-04-18T12:03:48.716Z,5.8923
2023-04-18T12:04:51.659Z,4.9385
2023-04-18T12:05:54.476Z,4.9000
2023-04-18T12:06:57.296Z,5.7308
2023-04-18T12:08:00.258Z,5.4385
2023-04-18T12:09:03.217Z,5.5231
2023-04-18T12:10:06.183Z,5.1923
2023-04-18T12:11:09.143Z,4.9923
2023-04-18T12:12:12.082Z,5.9308
2023-04-18T12:13:15.048Z,6.3308
2023-04-18T12:14:18.002Z,5.0538
2023-04-18T12:15:20.968Z,5.6000
2023-04-18T12:16:23.953Z,5.1077
2023-04-18T12:17:26.942Z,6.0846
2023-04-18T12:18:29.868Z,5.1308
2023-04-18T12:19:32.830Z,5.3692
2023-04-18T12:20:35.743Z,5.5538
2023-04-18T12:21:38.708Z,5.2308
2023-04-18T12:22:41.669Z,5.9385
2023-04-18T12:23:44.607Z,5.9846
2023-04-18T12:24:47.581Z,6.2154
2023-04-18T12:25:50.516Z,5.5000
2023-04-18T12:26:53.578Z,5.7462
2023-04-18T12:27:56.514Z,5.8615
2023-04-18T12:28:59.405Z,6.3538
2023-04-18T12:30:02.343Z,7.0154
2023-04-18T12:31:05.328Z,5.8769
2023-04-18T12:32:08.256Z,6.2615
2023-04-18T12:33:11.228Z,6.9462
2023-04-18T12:34:14.348Z,6.0000
2023-04-18T12:35:17.144Z,6.8538
2023-04-18T12:36:20.065Z,7.1077
2023-04-18T12:37:23.027Z,7.5154
2023-04-18T12:38:26.000Z,9.6077
2023-04-18T12:39:28.976Z,6.0538
2023-04-18T12:40:32.081Z,7.3538
2023-04-18T12:41:34.843Z,5.8923
2023-04-18T12:42:37.793Z,6.1154
2023-04-18T12:43:40.769Z,5.8846
2023-04-18T12:44:43.944Z,6.3846
2023-04-18T12:45:46.722Z,6.1077
2023-04-18T12:46:49.745Z,5.9615
2023-04-18T12:47:52.750Z,5.4231
2023-04-18T12:48:55.586Z,5.8385
2023-04-18T12:49:58.499Z,5.4846
2023-04-18T12:51:01.438Z,5.1923
2023-04-18T12:52:04.406Z,5.6538
2023-04-18T12:53:07.455Z,6.7846
2023-04-18T12:54:10.415Z,6.3769
2023-04-18T12:55:13.258Z,6.1231
2023-04-18T12:56:16.235Z,5.2769
2023-04-18T12:57:19.229Z,5.6615
2023-04-18T12:58:22.145Z,6.1923
2023-04-18T12:59:25.089Z,7.7615
2023-04-18T13:00:28.050Z,6.3538
2023-04-18T13:01:31.064Z,6.6538
2023-04-18T13:02:34.055Z,6.4692
2023-04-18T13:03:37.136Z,7.0308